sensor_id;sensor_type;location;lat;lon;timestamp;temperature;humidity
18950;DHT22;9608;49.288;8.130;2023-05-10T00:00:59;14.00;99.90
18950;DHT22;9608;49.288;8.130;2023-05-10T00:03:27;14.10;99.90
18950;DHT22;9608;49.288;8.130;2023-05-10T00:05:54;14.00;99.90
18950;DHT22;9608;49.288;8.130;2023-05-10T00:08:21;13.90;99.90
18950;DHT22;9608;49.288;8.130;2023-05-10T00:10:48;13.90;99.90
18950;DHT22;9608;49.288;8.130;2023-05-10T00:13:14;13.90;99.90
18950;DHT22;9608;49.288;8.130;2023-05-10T00:15:41;13.90;99.90
18950;DHT22;9608;49.288;8.130;2023-05-10T00:18:08;14.00;99.90
18950;DHT22;9608;49.288;8.130;2023-05-10T00:20:36;14.00;99.90
18950;DHT22;9608;49.288;8.130;2023-05-10T00:23:03;14.00;99.90
18950;DHT22;9608;49.288;8.130;2023-05-10T00:25:30;14.00;99.90
18950;DHT22;9608;49.288;8.130;2023-05-10T00:27:56;14.00;99.90
18950;DHT22;9608;49.288;8.130;2023-05-10T00:30:23;14.00;99.90
18950;DHT22;9608;49.288;8.130;2023-05-10T00:32:50;14.00;99.90
18950;DHT22;9608;49.288;8.130;2023-05-10T00:35:17;14.00;99.90
18950;DHT22;9608;49.288;8.130;2023-05-10T00:37:45;14.00;99.90
18950;DHT22;9608;49.288;8.130;2023-05-10T00:40:12;14.00;99.90
18950;DHT22;9608;49.288;8.130;2023-05-10T00:42:39;13.90;99.90
18950;DHT22;9608;49.288;8.130;2023-05-10T00:45:07;13.90;99.90
18950;DHT22;9608;49.288;8.130;2023-05-10T00:47:34;13.90;99.90
18950;DHT22;9608;49.288;8.130;2023-05-10T00:50:01;14.00;99.90
18950;DHT22;9608;49.288;8.130;2023-05-10T00:52:29;13.90;99.90
18950;DHT22;9608;49.288;8.130;2023-05-10T00:54:57;13.80;99.90
18950;DHT22;9608;49.288;8.130;2023-05-10T00:57:24;13.70;99.90
18950;DHT22;9608;49.288;8.130;2023-05-10T00:59:51;13.70;99.90
18950;DHT22;9608;49.288;8.130;2023-05-10T01:02:18;13.80;99.90
18950;DHT22;9608;49.288;8.130;2023-05-10T01:04:45;13.70;99.90
18950;DHT22;9608;49.288;8.130;2023-05-10T01:07:11;13.70;99.90
18950;DHT22;9608;49.288;8.130;2023-05-10T01:09:38;13.70;99.90
18950;DHT22;9608;49.288;8.130;2023-05-10T01:12:07;13.70;99.90
18950;DHT22;9608;49.288;8.130;2023-05-10T01:14:34;13.70;99.90
18950;DHT22;9608;49.288;8.130;2023-05-10T01:17:02;13.70;99.90
18950;DHT22;9608;49.288;8.130;2023-05-10T01:19:30;13.80;99.90
18950;DHT22;9608;49.288;8.130;2023-05-10T01:22:09;13.80;99.90
18950;DHT22;9608;49.288;8.130;2023-05-10T01:25:19;13.90;99.90
18950;DHT22;9608;49.288;8.130;2023-05-10T01:28:09;14.00;99.90
18950;DHT22;9608;49.288;8.130;2023-05-10T01:31:05;13.90;99.90
18950;DHT22;9608;49.288;8.130;2023-05-10T01:33:39;13.80;99.90
18950;DHT22;9608;49.288;8.130;2023-05-10T01:36:13;13.90;99.90
18950;DHT22;9608;49.288;8.130;2023-05-10T01:38:46;13.80;99.90
18950;DHT22;9608;49.288;8.130;2023-05-10T01:41:19;13.80;99.90
18950;DHT22;9608;49.288;8.130;2023-05-10T01:43:55;13.80;99.90
18950;DHT22;9608;49.288;8.130;2023-05-10T01:46:28;13.70;99.90
18950;DHT22;9608;49.288;8.130;2023-05-10T01:48:59;13.60;99.90
18950;DHT22;9608;49.288;8.130;2023-05-10T01:51:31;13.60;99.90
18950;DHT22;9608;49.288;8.130;2023-05-10T01:54:02;13.70;99.90
18950;DHT22;9608;49.288;8.130;2023-05-10T01:56:32;13.70;99.90
18950;DHT22;9608;49.288;8.130;2023-05-10T01:59:00;13.70;99.90
18950;DHT22;9608;49.288;8.130;2023-05-10T02:01:33;13.70;99.90
18950;DHT22;9608;49.288;8.130;2023-05-10T02:04:05;13.70;99.90
18950;DHT22;9608;49.288;8.130;2023-05-10T02:06:34;13.80;99.90
18950;DHT22;9608;49.288;8.130;2023-05-10T02:09:02;13.80;99.90
18950;DHT22;9608;49.288;8.130;2023-05-10T02:11:29;13.70;99.90
18950;DHT22;9608;49.288;8.130;2023-05-10T02:13:58;13.50;99.90
18950;DHT22;9608;49.288;8.130;2023-05-10T02:16:26;13.50;99.90
18950;DHT22;9608;49.288;8.130;2023-05-10T02:18:54;13.50;99.90
18950;DHT22;9608;49.288;8.130;2023-05-10T02:21:25;13.50;99.90
18950;DHT22;9608;49.288;8.130;2023-05-10T02:23:52;13.50;99.90
18950;DHT22;9608;49.288;8.130;2023-05-10T02:26:21;13.40;99.90
18950;DHT22;9608;49.288;8.130;2023-05-10T02:28:49;13.40;99.90
18950;DHT22;9608;49.288;8.130;2023-05-10T02:31:17;13.40;99.90
18950;DHT22;9608;49.288;8.130;2023-05-10T02:33:44;13.40;99.90
18950;DHT22;9608;49.288;8.130;2023-05-10T02:36:12;13.40;99.90
18950;DHT22;9608;49.288;8.130;2023-05-10T02:38:41;13.40;99.90
18950;DHT22;9608;49.288;8.130;2023-05-10T02:41:09;13.50;99.90
18950;DHT22;9608;49.288;8.130;2023-05-10T02:43:38;13.40;99.90
18950;DHT22;9608;49.288;8.130;2023-05-10T02:46:06;13.40;99.90
18950;DHT22;9608;49.288;8.130;2023-05-10T02:48:33;13.30;99.90
18950;DHT22;9608;49.288;8.130;2023-05-10T02:51:03;13.30;99.90
18950;DHT22;9608;49.288;8.130;2023-05-10T02:53:32;13.30;99.90
18950;DHT22;9608;49.288;8.130;2023-05-10T02:56:05;13.40;99.90
18950;DHT22;9608;49.288;8.130;2023-05-10T02:58:33;13.40;99.90
18950;DHT22;9608;49.288;8.130;2023-05-10T03:01:00;13.30;99.90
18950;DHT22;9608;49.288;8.130;2023-05-10T03:03:26;13.40;99.90
18950;DHT22;9608;49.288;8.130;2023-05-10T03:05:53;13.40;99.90
18950;DHT22;9608;49.288;8.130;2023-05-10T03:08:21;13.40;99.90
18950;DHT22;9608;49.288;8.130;2023-05-10T03:10:58;13.40;99.90
18950;DHT22;9608;49.288;8.130;2023-05-10T03:13:35;13.40;99.90
18950;DHT22;9608;49.288;8.130;2023-05-10T03:16:08;13.40;99.90
18950;DHT22;9608;49.288;8.130;2023-05-10T03:18:42;13.40;99.90
18950;DHT22;9608;49.288;8.130;2023-05-10T03:21:11;13.40;99.90
18950;DHT22;9608;49.288;8.130;2023-05-10T03:23:42;13.40;99.90
18950;DHT22;9608;49.288;8.130;2023-05-10T03:26:10;13.40;99.90
18950;DHT22;9608;49.288;8.130;2023-05-10T03:28:41;13.30;99.90
18950;DHT22;9608;49.288;8.130;2023-05-10T03:31:09;13.30;99.90
18950;DHT22;9608;49.288;8.130;2023-05-10T03:33:36;13.30;99.90
18950;DHT22;9608;49.288;8.130;2023-05-10T03:36:11;13.20;99.90
18950;DHT22;9608;49.288;8.130;2023-05-10T03:38:39;13.30;99.90
18950;DHT22;9608;49.288;8.130;2023-05-10T03:41:05;13.30;99.90
18950;DHT22;9608;49.288;8.130;2023-05-10T03:43:32;13.20;99.90
18950;DHT22;9608;49.288;8.130;2023-05-10T03:46:01;13.30;99.90
18950;DHT22;9608;49.288;8.130;2023-05-10T03:48:28;13.30;99.90
18950;DHT22;9608;49.288;8.130;2023-05-10T03:50:54;13.30;99.90
18950;DHT22;9608;49.288;8.130;2023-05-10T03:53:21;13.30;99.90
18950;DHT22;9608;49.288;8.130;2023-05-10T03:55:48;13.20;99.90
18950;DHT22;9608;49.288;8.130;2023-05-10T03:58:15;13.20;99.90
18950;DHT22;9608;49.288;8.130;2023-05-10T04:00:42;13.30;99.90
18950;DHT22;9608;49.288;8.130;2023-05-10T04:03:12;13.30;99.90
18950;DHT22;9608;49.288;8.130;2023-05-10T04:05:39;13.30;99.90
18950;DHT22;9608;49.288;8.130;2023-05-10T04:08:06;13.30;99.90
18950;DHT22;9608;49.288;8.130;2023-05-10T04:10:32;13.50;99.90
18950;DHT22;9608;49.288;8.130;2023-05-10T04:12:59;13.60;99.90
18950;DHT22;9608;49.288;8.130;2023-05-10T04:15:26;13.60;99.90
18950;DHT22;9608;49.288;8.130;2023-05-10T04:17:52;13.60;99.90
18950;DHT22;9608;49.288;8.130;2023-05-10T04:20:21;13.70;99.90
18950;DHT22;9608;49.288;8.130;2023-05-10T04:22:48;13.70;99.90
18950;DHT22;9608;49.288;8.130;2023-05-10T04:25:14;13.80;99.90
18950;DHT22;9608;49.288;8.130;2023-05-10T04:27:41;13.80;99.90
18950;DHT22;9608;49.288;8.130;2023-05-10T04:30:08;13.80;99.90
18950;DHT22;9608;49.288;8.130;2023-05-10T04:32:36;13.80;99.90
18950;DHT22;9608;49.288;8.130;2023-05-10T04:35:02;13.90;99.90
18950;DHT22;9608;49.288;8.130;2023-05-10T04:37:31;13.90;99.90
18950;DHT22;9608;49.288;8.130;2023-05-10T04:39:58;13.90;99.90
18950;DHT22;9608;49.288;8.130;2023-05-10T04:42:26;13.90;99.90
18950;DHT22;9608;49.288;8.130;2023-05-10T04:44:53;13.90;99.90
18950;DHT22;9608;49.288;8.130;2023-05-10T04:47:19;14.00;99.90
18950;DHT22;9608;49.288;8.130;2023-05-10T04:49:46;14.00;99.90
18950;DHT22;9608;49.288;8.130;2023-05-10T04:52:13;14.10;99.90
18950;DHT22;9608;49.288;8.130;2023-05-10T04:54:42;14.10;99.90
18950;DHT22;9608;49.288;8.130;2023-05-10T04:57:08;14.10;99.90
18950;DHT22;9608;49.288;8.130;2023-05-10T04:59:35;14.10;99.90
18950;DHT22;9608;49.288;8.130;2023-05-10T05:02:02;14.10;99.90
18950;DHT22;9608;49.288;8.130;2023-05-10T05:04:30;14.00;99.90
18950;DHT22;9608;49.288;8.130;2023-05-10T05:06:57;14.10;99.90
18950;DHT22;9608;49.288;8.130;2023-05-10T05:09:23;14.00;99.90
18950;DHT22;9608;49.288;8.130;2023-05-10T05:11:51;14.10;99.90
18950;DHT22;9608;49.288;8.130;2023-05-10T05:14:18;14.10;99.90
18950;DHT22;9608;49.288;8.130;2023-05-10T05:16:46;14.10;99.90
18950;DHT22;9608;49.288;8.130;2023-05-10T05:19:12;14.20;99.90
18950;DHT22;9608;49.288;8.130;2023-05-10T05:21:39;14.10;99.90
18950;DHT22;9608;49.288;8.130;2023-05-10T05:24:06;14.20;99.90
18950;DHT22;9608;49.288;8.130;2023-05-10T05:26:33;14.20;99.90
18950;DHT22;9608;49.288;8.130;2023-05-10T05:29:02;14.20;99.90
18950;DHT22;9608;49.288;8.130;2023-05-10T05:31:28;14.10;99.90
18950;DHT22;9608;49.288;8.130;2023-05-10T05:33:56;14.10;99.90
18950;DHT22;9608;49.288;8.130;2023-05-10T05:36:22;14.10;99.90
18950;DHT22;9608;49.288;8.130;2023-05-10T05:38:49;14.30;99.90
18950;DHT22;9608;49.288;8.130;2023-05-10T05:41:16;14.30;99.90
18950;DHT22;9608;49.288;8.130;2023-05-10T05:43:43;14.30;99.90
18950;DHT22;9608;49.288;8.130;2023-05-10T05:46:11;14.30;99.90
18950;DHT22;9608;49.288;8.130;2023-05-10T05:48:38;14.40;99.90
18950;DHT22;9608;49.288;8.130;2023-05-10T05:51:04;14.40;99.90
18950;DHT22;9608;49.288;8.130;2023-05-10T05:53:31;14.50;99.90
18950;DHT22;9608;49.288;8.130;2023-05-10T05:55:58;14.70;99.90
18950;DHT22;9608;49.288;8.130;2023-05-10T05:58:25;14.90;99.90
18950;DHT22;9608;49.288;8.130;2023-05-10T06:00:52;14.90;99.90
18950;DHT22;9608;49.288;8.130;2023-05-10T06:03:21;15.00;99.90
18950;DHT22;9608;49.288;8.130;2023-05-10T06:05:48;15.20;99.90
18950;DHT22;9608;49.288;8.130;2023-05-10T06:08:15;15.30;99.90
18950;DHT22;9608;49.288;8.130;2023-05-10T06:10:42;15.50;99.90
18950;DHT22;9608;49.288;8.130;2023-05-10T06:13:09;15.60;99.90
18950;DHT22;9608;49.288;8.130;2023-05-10T06:15:37;15.70;99.90
18950;DHT22;9608;49.288;8.130;2023-05-10T06:18:04;15.70;99.90
18950;DHT22;9608;49.288;8.130;2023-05-10T06:20:33;15.90;99.90
18950;DHT22;9608;49.288;8.130;2023-05-10T06:23:00;15.90;99.90
18950;DHT22;9608;49.288;8.130;2023-05-10T06:25:27;15.80;99.90
18950;DHT22;9608;49.288;8.130;2023-05-10T06:27:55;15.60;99.90
18950;DHT22;9608;49.288;8.130;2023-05-10T06:30:24;15.60;99.90
18950;DHT22;9608;49.288;8.130;2023-05-10T06:33:02;15.60;99.90
18950;DHT22;9608;49.288;8.130;2023-05-10T06:35:30;15.70;99.90
18950;DHT22;9608;49.288;8.130;2023-05-10T06:38:00;15.80;99.90
18950;DHT22;9608;49.288;8.130;2023-05-10T06:40:27;15.80;99.90
18950;DHT22;9608;49.288;8.130;2023-05-10T06:42:54;16.00;99.90
18950;DHT22;9608;49.288;8.130;2023-05-10T06:45:21;16.00;99.90
18950;DHT22;9608;49.288;8.130;2023-05-10T06:47:48;15.80;99.90
18950;DHT22;9608;49.288;8.130;2023-05-10T06:50:15;16.10;99.90
18950;DHT22;9608;49.288;8.130;2023-05-10T06:52:42;16.50;99.90
18950;DHT22;9608;49.288;8.130;2023-05-10T06:55:11;16.50;99.90
18950;DHT22;9608;49.288;8.130;2023-05-10T06:57:38;16.30;99.90
18950;DHT22;9608;49.288;8.130;2023-05-10T07:00:06;16.20;99.90
18950;DHT22;9608;49.288;8.130;2023-05-10T07:02:35;16.20;99.90
18950;DHT22;9608;49.288;8.130;2023-05-10T07:05:02;16.30;99.90
18950;DHT22;9608;49.288;8.130;2023-05-10T07:07:30;16.50;99.90
18950;DHT22;9608;49.288;8.130;2023-05-10T07:09:58;16.60;99.90
18950;DHT22;9608;49.288;8.130;2023-05-10T07:12:27;16.60;99.90
18950;DHT22;9608;49.288;8.130;2023-05-10T07:14:56;16.80;99.90
18950;DHT22;9608;49.288;8.130;2023-05-10T07:17:23;16.90;99.90
18950;DHT22;9608;49.288;8.130;2023-05-10T07:19:51;16.80;99.90
18950;DHT22;9608;49.288;8.130;2023-05-10T07:22:18;16.90;99.90
18950;DHT22;9608;49.288;8.130;2023-05-10T07:24:45;16.70;99.90
18950;DHT22;9608;49.288;8.130;2023-05-10T07:27:12;16.70;99.90
18950;DHT22;9608;49.288;8.130;2023-05-10T07:29:42;17.00;99.90
18950;DHT22;9608;49.288;8.130;2023-05-10T07:32:09;17.00;99.90
18950;DHT22;9608;49.288;8.130;2023-05-10T07:34:36;17.10;99.90
18950;DHT22;9608;49.288;8.130;2023-05-10T07:37:03;17.20;99.90
18950;DHT22;9608;49.288;8.130;2023-05-10T07:39:31;17.30;99.90
18950;DHT22;9608;49.288;8.130;2023-05-10T07:41:58;17.30;99.90
18950;DHT22;9608;49.288;8.130;2023-05-10T07:44:25;17.60;99.90
18950;DHT22;9608;49.288;8.130;2023-05-10T07:46:53;18.00;99.90
18950;DHT22;9608;49.288;8.130;2023-05-10T07:49:21;18.10;99.90
18950;DHT22;9608;49.288;8.130;2023-05-10T07:51:49;18.20;99.90
18950;DHT22;9608;49.288;8.130;2023-05-10T07:54:16;18.40;99.90
18950;DHT22;9608;49.288;8.130;2023-05-10T07:56:43;18.70;99.90
18950;DHT22;9608;49.288;8.130;2023-05-10T07:59:15;18.70;99.90
18950;DHT22;9608;49.288;8.130;2023-05-10T08:01:43;18.30;99.90
18950;DHT22;9608;49.288;8.130;2023-05-10T08:04:12;18.00;99.90
18950;DHT22;9608;49.288;8.130;2023-05-10T08:06:40;17.70;99.90
18950;DHT22;9608;49.288;8.130;2023-05-10T08:09:08;17.90;99.90
18950;DHT22;9608;49.288;8.130;2023-05-10T08:11:36;18.20;99.90
18950;DHT22;9608;49.288;8.130;2023-05-10T08:14:03;18.30;99.90
18950;DHT22;9608;49.288;8.130;2023-05-10T08:16:30;18.20;99.90
18950;DHT22;9608;49.288;8.130;2023-05-10T08:18:58;18.20;99.90
18950;DHT22;9608;49.288;8.130;2023-05-10T08:21:27;18.50;99.90
18950;DHT22;9608;49.288;8.130;2023-05-10T08:23:54;18.70;99.90
18950;DHT22;9608;49.288;8.130;2023-05-10T08:26:21;18.50;99.90
18950;DHT22;9608;49.288;8.130;2023-05-10T08:28:49;18.20;99.90
18950;DHT22;9608;49.288;8.130;2023-05-10T08:31:16;17.80;99.90
18950;DHT22;9608;49.288;8.130;2023-05-10T08:33:43;17.40;99.90
18950;DHT22;9608;49.288;8.130;2023-05-10T08:36:11;17.50;99.90
18950;DHT22;9608;49.288;8.130;2023-05-10T08:38:44;17.60;99.90
18950;DHT22;9608;49.288;8.130;2023-05-10T08:41:12;17.60;99.90
18950;DHT22;9608;49.288;8.130;2023-05-10T08:43:40;17.80;99.90
18950;DHT22;9608;49.288;8.130;2023-05-10T08:46:15;18.10;99.90
18950;DHT22;9608;49.288;8.130;2023-05-10T08:48:46;18.10;99.90
18950;DHT22;9608;49.288;8.130;2023-05-10T08:51:15;18.50;99.90
18950;DHT22;9608;49.288;8.130;2023-05-10T08:53:47;18.70;99.90
18950;DHT22;9608;49.288;8.130;2023-05-10T08:56:15;18.80;99.90
18950;DHT22;9608;49.288;8.130;2023-05-10T08:58:44;18.30;99.90
18950;DHT22;9608;49.288;8.130;2023-05-10T09:01:12;18.10;99.90
18950;DHT22;9608;49.288;8.130;2023-05-10T09:03:40;17.90;99.90
18950;DHT22;9608;49.288;8.130;2023-05-10T09:06:08;17.70;99.90
18950;DHT22;9608;49.288;8.130;2023-05-10T09:08:37;17.40;99.90
18950;DHT22;9608;49.288;8.130;2023-05-10T09:11:06;17.40;99.90
18950;DHT22;9608;49.288;8.130;2023-05-10T09:13:33;17.20;99.90
18950;DHT22;9608;49.288;8.130;2023-05-10T09:16:03;17.10;99.90
18950;DHT22;9608;49.288;8.130;2023-05-10T09:18:30;16.40;99.90
18950;DHT22;9608;49.288;8.130;2023-05-10T09:20:57;16.10;99.90
18950;DHT22;9608;49.288;8.130;2023-05-10T09:23:25;16.20;99.90
18950;DHT22;9608;49.288;8.130;2023-05-10T09:26:05;16.20;99.90
18950;DHT22;9608;49.288;8.130;2023-05-10T09:28:32;16.50;99.90
18950;DHT22;9608;49.288;8.130;2023-05-10T09:31:00;16.80;99.90
18950;DHT22;9608;49.288;8.130;2023-05-10T09:33:26;17.20;99.90
18950;DHT22;9608;49.288;8.130;2023-05-10T09:35:53;17.70;99.90
18950;DHT22;9608;49.288;8.130;2023-05-10T09:38:20;17.90;99.90
18950;DHT22;9608;49.288;8.130;2023-05-10T09:40:51;17.80;99.90
18950;DHT22;9608;49.288;8.130;2023-05-10T09:43:21;18.00;99.90
18950;DHT22;9608;49.288;8.130;2023-05-10T09:45:48;17.90;99.90
18950;DHT22;9608;49.288;8.130;2023-05-10T09:48:16;18.20;99.90
18950;DHT22;9608;49.288;8.130;2023-05-10T09:50:43;18.60;99.90
18950;DHT22;9608;49.288;8.130;2023-05-10T09:53:14;18.90;99.90
18950;DHT22;9608;49.288;8.130;2023-05-10T09:55:44;19.20;99.90
18950;DHT22;9608;49.288;8.130;2023-05-10T09:58:13;19.50;99.90
18950;DHT22;9608;49.288;8.130;2023-05-10T10:00:47;19.60;99.90
18950;DHT22;9608;49.288;8.130;2023-05-10T10:03:20;19.50;99.90
18950;DHT22;9608;49.288;8.130;2023-05-10T10:05:48;18.50;99.90
18950;DHT22;9608;49.288;8.130;2023-05-10T10:08:17;17.80;99.90
18950;DHT22;9608;49.288;8.130;2023-05-10T10:10:48;17.60;99.90
18950;DHT22;9608;49.288;8.130;2023-05-10T10:13:16;17.60;99.90
18950;DHT22;9608;49.288;8.130;2023-05-10T10:15:46;17.70;99.90
18950;DHT22;9608;49.288;8.130;2023-05-10T10:18:17;17.90;99.90
18950;DHT22;9608;49.288;8.130;2023-05-10T10:20:49;17.70;99.90
18950;DHT22;9608;49.288;8.130;2023-05-10T10:23:16;17.30;99.90
18950;DHT22;9608;49.288;8.130;2023-05-10T10:25:44;17.40;99.90
18950;DHT22;9608;49.288;8.130;2023-05-10T10:28:23;17.80;99.90
18950;DHT22;9608;49.288;8.130;2023-05-10T10:30:56;18.10;99.90
18950;DHT22;9608;49.288;8.130;2023-05-10T10:33:39;18.10;99.90
18950;DHT22;9608;49.288;8.130;2023-05-10T10:36:08;18.50;99.90
18950;DHT22;9608;49.288;8.130;2023-05-10T10:38:37;18.60;99.90
18950;DHT22;9608;49.288;8.130;2023-05-10T10:41:10;18.70;99.90
18950;DHT22;9608;49.288;8.130;2023-05-10T10:43:37;18.60;99.90
18950;DHT22;9608;49.288;8.130;2023-05-10T10:46:15;19.10;99.90
18950;DHT22;9608;49.288;8.130;2023-05-10T10:48:48;19.40;99.90
18950;DHT22;9608;49.288;8.130;2023-05-10T10:51:17;19.40;99.90
18950;DHT22;9608;49.288;8.130;2023-05-10T10:53:47;19.00;99.90
18950;DHT22;9608;49.288;8.130;2023-05-10T10:56:15;18.70;99.90
18950;DHT22;9608;49.288;8.130;2023-05-10T10:58:49;18.30;99.90
18950;DHT22;9608;49.288;8.130;2023-05-10T11:01:20;18.20;99.90
18950;DHT22;9608;49.288;8.130;2023-05-10T11:04:18;18.50;99.90
18950;DHT22;9608;49.288;8.130;2023-05-10T11:06:46;18.60;99.90
18950;DHT22;9608;49.288;8.130;2023-05-10T11:09:13;18.60;99.90
18950;DHT22;9608;49.288;8.130;2023-05-10T11:11:52;18.20;99.90
18950;DHT22;9608;49.288;8.130;2023-05-10T11:14:21;17.90;99.90
18950;DHT22;9608;49.288;8.130;2023-05-10T11:16:51;17.70;99.90
18950;DHT22;9608;49.288;8.130;2023-05-10T11:19:18;17.70;99.90
18950;DHT22;9608;49.288;8.130;2023-05-10T11:21:46;17.70;99.90
18950;DHT22;9608;49.288;8.130;2023-05-10T11:24:15;17.50;99.90
18950;DHT22;9608;49.288;8.130;2023-05-10T11:26:42;17.30;99.90
18950;DHT22;9608;49.288;8.130;2023-05-10T11:29:09;17.40;99.90
18950;DHT22;9608;49.288;8.130;2023-05-10T11:31:42;17.70;99.90
18950;DHT22;9608;49.288;8.130;2023-05-10T11:34:12;17.80;99.90
18950;DHT22;9608;49.288;8.130;2023-05-10T11:36:51;18.00;99.90
18950;DHT22;9608;49.288;8.130;2023-05-10T11:39:19;18.10;99.90
18950;DHT22;9608;49.288;8.130;2023-05-10T11:41:48;18.20;99.90
18950;DHT22;9608;49.288;8.130;2023-05-10T11:44:15;18.20;99.90
18950;DHT22;9608;49.288;8.130;2023-05-10T11:46:42;18.30;99.90
18950;DHT22;9608;49.288;8.130;2023-05-10T11:49:08;18.00;99.90
18950;DHT22;9608;49.288;8.130;2023-05-10T11:51:36;18.00;99.90
18950;DHT22;9608;49.288;8.130;2023-05-10T11:54:06;18.30;99.90
18950;DHT22;9608;49.288;8.130;2023-05-10T11:56:34;18.70;99.90
18950;DHT22;9608;49.288;8.130;2023-05-10T11:59:00;19.10;99.90
18950;DHT22;9608;49.288;8.130;2023-05-10T12:01:28;19.30;99.90
18950;DHT22;9608;49.288;8.130;2023-05-10T12:03:57;19.70;99.90
18950;DHT22;9608;49.288;8.130;2023-05-10T12:06:27;20.00;99.90
18950;DHT22;9608;49.288;8.130;2023-05-10T12:08:55;19.50;99.90
18950;DHT22;9608;49.288;8.130;2023-05-10T12:11:24;19.60;99.90
18950;DHT22;9608;49.288;8.130;2023-05-10T12:13:51;19.50;99.90
18950;DHT22;9608;49.288;8.130;2023-05-10T12:16:19;19.80;99.90
18950;DHT22;9608;49.288;8.130;2023-05-10T12:18:48;20.40;99.90
18950;DHT22;9608;49.288;8.130;2023-05-10T12:21:17;20.70;99.90
18950;DHT22;9608;49.288;8.130;2023-05-10T12:23:46;20.20;99.90
18950;DHT22;9608;49.288;8.130;2023-05-10T12:26:14;20.10;99.90
18950;DHT22;9608;49.288;8.130;2023-05-10T12:28:41;19.90;99.90
18950;DHT22;9608;49.288;8.130;2023-05-10T12:31:08;19.50;99.90
18950;DHT22;9608;49.288;8.130;2023-05-10T12:33:36;18.80;99.90
18950;DHT22;9608;49.288;8.130;2023-05-10T12:36:05;18.80;99.90
18950;DHT22;9608;49.288;8.130;2023-05-10T12:38:34;19.20;99.90
18950;DHT22;9608;49.288;8.130;2023-05-10T12:41:02;19.30;99.90
18950;DHT22;9608;49.288;8.130;2023-05-10T12:43:31;19.10;99.90
18950;DHT22;9608;49.288;8.130;2023-05-10T12:45:58;18.50;99.90
18950;DHT22;9608;49.288;8.130;2023-05-10T12:48:25;18.40;99.90
18950;DHT22;9608;49.288;8.130;2023-05-10T12:50:51;18.30;99.90
18950;DHT22;9608;49.288;8.130;2023-05-10T12:53:18;18.40;99.90
18950;DHT22;9608;49.288;8.130;2023-05-10T12:55:45;18.90;99.90
18950;DHT22;9608;49.288;8.130;2023-05-10T12:58:11;19.20;99.90
18950;DHT22;9608;49.288;8.130;2023-05-10T13:00:40;19.10;99.90
18950;DHT22;9608;49.288;8.130;2023-05-10T13:03:06;19.30;99.90
18950;DHT22;9608;49.288;8.130;2023-05-10T13:05:33;19.40;99.90
18950;DHT22;9608;49.288;8.130;2023-05-10T13:08:00;19.40;99.90
18950;DHT22;9608;49.288;8.130;2023-05-10T13:10:29;19.80;99.90
18950;DHT22;9608;49.288;8.130;2023-05-10T13:12:56;19.90;99.90
18950;DHT22;9608;49.288;8.130;2023-05-10T13:15:22;19.80;99.90
18950;DHT22;9608;49.288;8.130;2023-05-10T13:17:51;19.40;99.90
18950;DHT22;9608;49.288;8.130;2023-05-10T13:20:18;19.60;99.90
18950;DHT22;9608;49.288;8.130;2023-05-10T13:22:45;19.30;99.90
18950;DHT22;9608;49.288;8.130;2023-05-10T13:25:12;19.40;99.90
18950;DHT22;9608;49.288;8.130;2023-05-10T13:27:39;19.60;99.90
18950;DHT22;9608;49.288;8.130;2023-05-10T13:30:06;19.60;99.90
18950;DHT22;9608;49.288;8.130;2023-05-10T13:32:34;19.20;99.90
18950;DHT22;9608;49.288;8.130;2023-05-10T13:35:02;19.50;99.90
18950;DHT22;9608;49.288;8.130;2023-05-10T13:37:29;19.40;99.90
18950;DHT22;9608;49.288;8.130;2023-05-10T13:39:56;19.50;99.90
18950;DHT22;9608;49.288;8.130;2023-05-10T13:42:23;19.30;99.90
18950;DHT22;9608;49.288;8.130;2023-05-10T13:44:50;19.20;99.90
18950;DHT22;9608;49.288;8.130;2023-05-10T13:47:16;19.30;99.90
18950;DHT22;9608;49.288;8.130;2023-05-10T13:49:43;19.20;99.90
18950;DHT22;9608;49.288;8.130;2023-05-10T13:52:11;19.60;99.90
18950;DHT22;9608;49.288;8.130;2023-05-10T13:54:39;19.90;99.90
18950;DHT22;9608;49.288;8.130;2023-05-10T13:57:06;20.20;99.90
18950;DHT22;9608;49.288;8.130;2023-05-10T13:59:32;20.30;99.90
18950;DHT22;9608;49.288;8.130;2023-05-10T14:01:59;19.90;99.90
18950;DHT22;9608;49.288;8.130;2023-05-10T14:04:27;19.70;99.90
18950;DHT22;9608;49.288;8.130;2023-05-10T14:06:54;20.00;99.90
18950;DHT22;9608;49.288;8.130;2023-05-10T14:09:22;19.50;99.90
18950;DHT22;9608;49.288;8.130;2023-05-10T14:11:49;19.40;99.90
18950;DHT22;9608;49.288;8.130;2023-05-10T14:14:16;19.70;99.90
18950;DHT22;9608;49.288;8.130;2023-05-10T14:16:45;19.60;99.90
18950;DHT22;9608;49.288;8.130;2023-05-10T14:19:12;19.40;99.90
18950;DHT22;9608;49.288;8.130;2023-05-10T14:21:39;19.60;99.90
18950;DHT22;9608;49.288;8.130;2023-05-10T14:24:06;19.70;99.90
18950;DHT22;9608;49.288;8.130;2023-05-10T14:26:34;19.70;99.90
18950;DHT22;9608;49.288;8.130;2023-05-10T14:29:01;19.90;99.90
18950;DHT22;9608;49.288;8.130;2023-05-10T14:31:27;20.10;99.90
18950;DHT22;9608;49.288;8.130;2023-05-10T14:33:55;20.10;99.90
18950;DHT22;9608;49.288;8.130;2023-05-10T14:36:22;19.90;99.90
18950;DHT22;9608;49.288;8.130;2023-05-10T14:38:49;19.60;99.90
18950;DHT22;9608;49.288;8.130;2023-05-10T14:41:16;19.70;99.90
18950;DHT22;9608;49.288;8.130;2023-05-10T14:43:44;19.60;99.90
18950;DHT22;9608;49.288;8.130;2023-05-10T14:46:11;19.60;99.90
18950;DHT22;9608;49.288;8.130;2023-05-10T14:48:38;19.60;99.90
18950;DHT22;9608;49.288;8.130;2023-05-10T14:51:04;19.70;99.90
18950;DHT22;9608;49.288;8.130;2023-05-10T14:53:32;20.00;99.90
18950;DHT22;9608;49.288;8.130;2023-05-10T14:55:58;20.10;99.90
18950;DHT22;9608;49.288;8.130;2023-05-10T14:58:26;20.00;99.90
18950;DHT22;9608;49.288;8.130;2023-05-10T15:00:54;20.00;99.90
18950;DHT22;9608;49.288;8.130;2023-05-10T15:03:22;19.80;99.90
18950;DHT22;9608;49.288;8.130;2023-05-10T15:05:48;19.90;99.90
18950;DHT22;9608;49.288;8.130;2023-05-10T15:08:15;19.40;99.90
18950;DHT22;9608;49.288;8.130;2023-05-10T15:10:42;19.60;99.90
18950;DHT22;9608;49.288;8.130;2023-05-10T15:13:08;19.90;99.90
18950;DHT22;9608;49.288;8.130;2023-05-10T15:15:35;20.10;99.90
18950;DHT22;9608;49.288;8.130;2023-05-10T15:18:03;20.40;99.90
18950;DHT22;9608;49.288;8.130;2023-05-10T15:20:31;20.70;99.90
18950;DHT22;9608;49.288;8.130;2023-05-10T15:22:57;20.70;99.90
18950;DHT22;9608;49.288;8.130;2023-05-10T15:25:24;20.70;99.90
18950;DHT22;9608;49.288;8.130;2023-05-10T15:27:51;20.80;99.90
18950;DHT22;9608;49.288;8.130;2023-05-10T15:30:18;20.80;99.90
18950;DHT22;9608;49.288;8.130;2023-05-10T15:32:45;20.70;99.90
18950;DHT22;9608;49.288;8.130;2023-05-10T15:35:13;20.40;99.90
18950;DHT22;9608;49.288;8.130;2023-05-10T15:37:40;20.20;99.90
18950;DHT22;9608;49.288;8.130;2023-05-10T15:40:07;20.50;99.90
18950;DHT22;9608;49.288;8.130;2023-05-10T15:42:34;20.40;99.90
18950;DHT22;9608;49.288;8.130;2023-05-10T15:45:01;20.20;99.90
18950;DHT22;9608;49.288;8.130;2023-05-10T15:47:29;20.00;99.90
18950;DHT22;9608;49.288;8.130;2023-05-10T15:49:56;20.00;99.90
18950;DHT22;9608;49.288;8.130;2023-05-10T15:52:24;19.80;99.90